createdAt,value
2018-11-06T00:00:05.681Z,63.68
2018-11-06T00:03:19.088Z,68.78
2018-11-06T00:06:17.034Z,68.52
2018-11-06T00:09:19.244Z,67.97
2018-11-06T00:12:15.368Z,67.25
2018-11-06T00:15:10.134Z,69.27
2018-11-06T00:18:04.935Z,69.45
2018-11-06T00:20:59.350Z,67.30
2018-11-06T00:23:53.701Z,65.12
2018-11-06T00:26:50.353Z,74.60
2018-11-06T00:29:46.048Z,71.72
2018-11-06T00:32:40.771Z,79.85
2018-11-06T00:35:38.476Z,71.92
2018-11-06T00:38:32.702Z,72.42
2018-11-06T00:41:30.464Z,72.32
2018-11-06T00:44:30.650Z,91.90
2018-11-06T00:47:28.354Z,76.37
2018-11-06T00:50:29.297Z,77.22
2018-11-06T00:53:29.874Z,75.00
2018-11-06T00:56:27.406Z,85.32
2018-11-06T00:59:24.830Z,75.72
2018-11-06T01:02:22.461Z,85.07
2018-11-06T01:05:18.653Z,79.15
2018-11-06T01:08:14.045Z,89.03
2018-11-06T01:11:09.373Z,92.92
2018-11-06T01:14:05.234Z,75.03
2018-11-06T01:17:00.592Z,94.10
2018-11-06T01:19:56.333Z,152.32
2018-11-06T01:22:52.101Z,149.15
2018-11-06T01:25:48.553Z,83.05
2018-11-06T01:28:44.598Z,81.67
2018-11-06T01:31:40.252Z,101.47
2018-11-06T01:34:35.688Z,74.75
2018-11-06T01:37:31.333Z,76.47
2018-11-06T01:40:26.442Z,88.15
2018-11-06T01:43:25.300Z,84.20
2018-11-06T01:46:22.001Z,86.60
2018-11-06T01:49:17.272Z,82.92
2018-11-06T01:52:12.113Z,86.50
2018-11-06T01:55:08.567Z,78.95
2018-11-06T01:58:04.153Z,89.13
2018-11-06T02:01:00.191Z,100.47
2018-11-06T02:03:54.515Z,96.97
2018-11-06T02:06:49.389Z,96.42
2018-11-06T02:09:44.446Z,81.67
2018-11-06T02:12:40.596Z,73.75
2018-11-06T02:15:37.305Z,77.08
2018-11-06T02:18:32.998Z,77.70
2018-11-06T02:21:29.794Z,83.50
2018-11-06T02:24:26.535Z,101.35
2018-11-06T02:27:20.919Z,104.40
2018-11-06T02:30:19.587Z,100.60
2018-11-06T02:33:16.652Z,87.57
2018-11-06T02:36:13.366Z,93.17
2018-11-06T02:39:09.739Z,88.33
2018-11-06T02:42:04.732Z,89.30
2018-11-06T02:45:05.527Z,106.22
2018-11-06T02:48:02.952Z,107.12
2018-11-06T02:51:00.388Z,115.08
2018-11-06T02:53:58.235Z,131.72
2018-11-06T02:56:54.341Z,86.92
2018-11-06T02:59:49.671Z,108.70
2018-11-06T03:02:45.486Z,103.12
2018-11-06T03:05:39.511Z,109.15
2018-11-06T03:08:35.903Z,134.27
2018-11-06T03:11:31.836Z,103.58
2018-11-06T03:14:28.363Z,105.00
2018-11-06T03:17:24.575Z,110.48
2018-11-06T03:20:20.774Z,101.42
2018-11-06T03:23:17.567Z,103.32
2018-11-06T03:26:13.656Z,110.28
2018-11-06T03:29:11.265Z,87.08
2018-11-06T03:32:08.305Z,84.17
2018-11-06T03:35:05.534Z,83.65
2018-11-06T03:38:01.618Z,69.15
2018-11-06T03:40:57.018Z,71.33
2018-11-06T03:43:54.344Z,77.45
2018-11-06T03:46:50.943Z,68.28
2018-11-06T03:49:47.065Z,77.22
2018-11-06T03:52:42.703Z,74.17
2018-11-06T03:55:38.963Z,72.90
2018-11-06T03:58:35.579Z,74.65
2018-11-06T04:01:31.488Z,76.67
2018-11-06T04:04:27.780Z,92.05
2018-11-06T04:07:34.847Z,83.78
2018-11-06T04:10:31.523Z,102.55
2018-11-06T04:13:27.509Z,82.60
2018-11-06T04:16:23.883Z,87.22
2018-11-06T04:19:20.524Z,96.25
2018-11-06T04:22:19.677Z,102.53
2018-11-06T04:25:17.585Z,99.67
2018-11-06T04:28:12.504Z,93.40
2018-11-06T04:31:09.418Z,115.42
2018-11-06T04:34:07.374Z,101.47
2018-11-06T04:37:03.579Z,98.07
2018-11-06T04:40:00.335Z,107.85
2018-11-06T04:43:00.463Z,104.38
2018-11-06T04:46:03.902Z,106.17
2018-11-06T04:49:00.021Z,127.27
2018-11-06T04:51:55.343Z,152.57
2018-11-06T04:54:51.731Z,112.72
2018-11-06T04:57:49.186Z,99.30
2018-11-06T05:00:47.346Z,131.47
2018-11-06T05:03:55.560Z,105.58
2018-11-06T05:06:50.863Z,93.30
2018-11-06T05:09:45.252Z,112.42
2018-11-06T05:12:45.275Z,92.17
2018-11-06T05:15:37.109Z,90.45
2018-11-06T05:18:33.016Z,172.35
2018-11-06T05:21:30.590Z,129.82
2018-11-06T05:24:29.106Z,108.50
2018-11-06T05:27:27.403Z,93.80
2018-11-06T05:30:23.792Z,109.87
2018-11-06T05:33:23.690Z,124.90
2018-11-06T05:36:24.546Z,99.40
2018-11-06T05:39:34.479Z,105.75
2018-11-06T05:42:40.734Z,108.05
2018-11-06T05:45:43.183Z,121.20
2018-11-06T05:48:44.039Z,83.15
2018-11-06T05:55:09.846Z,95.97
2018-11-06T05:58:13.701Z,89.13
2018-11-06T06:01:24.337Z,72.03
2018-11-06T06:04:30.223Z,78.33
2018-11-06T06:07:31.686Z,81.65
2018-11-06T06:10:31.554Z,80.80
2018-11-06T06:13:30.059Z,107.37
2018-11-06T06:16:30.041Z,72.95
2018-11-06T06:19:57.287Z,69.15
2018-11-06T06:23:19.241Z,77.03
2018-11-06T06:29:47.837Z,68.65
2018-11-06T06:32:43.506Z,71.75
2018-11-06T06:35:37.466Z,68.62
2018-11-06T06:38:31.703Z,66.62
2018-11-06T06:41:28.987Z,80.30
2018-11-06T06:44:28.718Z,67.22
2018-11-06T06:47:22.624Z,57.98
2018-11-06T06:50:18.117Z,61.23
2018-11-06T06:53:12.240Z,55.95
2018-11-06T06:56:06.043Z,59.48
2018-11-06T06:59:02.804Z,56.20
2018-11-06T07:01:57.330Z,54.60
2018-11-06T07:04:57.700Z,68.57
2018-11-06T07:07:52.751Z,67.27
2018-11-06T07:10:46.829Z,46.77
2018-11-06T07:13:40.401Z,53.30
2018-11-06T07:16:37.324Z,61.50
2018-11-06T07:19:31.549Z,50.98
2018-11-06T07:22:28.150Z,72.58
2018-11-06T07:25:21.905Z,64.25
2018-11-06T07:28:15.391Z,56.45
2018-11-06T07:31:09.754Z,67.87
2018-11-06T07:34:04.886Z,62.20
2018-11-06T07:37:07.127Z,62.85
2018-11-06T07:43:56.209Z,59.50
2018-11-06T07:46:52.135Z,79.20
2018-11-06T07:49:48.564Z,87.42
2018-11-06T07:52:43.811Z,68.92
2018-11-06T07:55:40.834Z,69.67
2018-11-06T07:58:44.080Z,79.55
2018-11-06T08:01:36.295Z,67.95
2018-11-06T08:04:31.561Z,67.12
2018-11-06T08:07:26.098Z,73.33
2018-11-06T08:10:24.161Z,61.50
2018-11-06T08:13:15.759Z,55.88
2018-11-06T08:17:50.863Z,62.05
2018-11-06T08:20:45.339Z,63.05
2018-11-06T08:23:39.269Z,70.22
2018-11-06T08:26:38.003Z,62.15
2018-11-06T08:29:27.507Z,68.78
2018-11-06T08:32:39.058Z,59.10
2018-11-06T08:35:29.918Z,65.87
2018-11-06T08:38:23.654Z,70.35
2018-11-06T08:41:17.831Z,68.40
2018-11-06T08:44:12.124Z,69.32
2018-11-06T08:47:05.916Z,54.77
2018-11-06T08:52:54.454Z,52.08
2018-11-06T08:55:48.752Z,57.80
2018-11-06T08:58:42.338Z,57.83
2018-11-06T09:01:35.866Z,58.50
2018-11-06T09:04:29.806Z,64.70
2018-11-06T09:07:23.642Z,59.90
2018-11-06T09:10:18.441Z,51.13
2018-11-06T09:13:13.341Z,52.95
2018-11-06T09:16:08.735Z,49.18
2018-11-06T09:19:07.367Z,55.33
2018-11-06T09:22:09.200Z,61.08
2018-11-06T09:25:05.515Z,49.75
2018-11-06T09:28:04.816Z,54.77
2018-11-06T09:31:00.777Z,54.48
2018-11-06T09:33:59.768Z,55.35
2018-11-06T09:36:59.065Z,56.33
2018-11-06T09:39:56.171Z,49.55
2018-11-06T09:42:53.897Z,49.53
2018-11-06T09:45:50.517Z,49.15
2018-11-06T09:48:52.057Z,63.17
2018-11-06T09:51:50.183Z,46.00
2018-11-06T09:54:46.911Z,57.00
2018-11-06T09:57:43.643Z,43.28
2018-11-06T10:00:41.444Z,50.40
2018-11-06T10:03:41.465Z,50.20
2018-11-06T10:06:39.764Z,61.25
2018-11-06T10:09:37.342Z,57.20
2018-11-06T10:12:33.436Z,53.05
2018-11-06T10:15:33.392Z,63.38
2018-11-06T10:18:29.441Z,53.13
2018-11-06T10:21:24.605Z,66.87
2018-11-06T10:24:22.597Z,59.73
2018-11-06T10:27:14.920Z,55.25
2018-11-06T10:30:11.410Z,58.20
2018-11-06T10:33:08.382Z,59.93
2018-11-06T10:36:02.635Z,62.80
2018-11-06T10:38:59.537Z,48.68
2018-11-06T10:42:03.404Z,63.25
2018-11-06T10:45:01.790Z,56.28
2018-11-06T10:47:55.998Z,50.73
2018-11-06T10:50:51.061Z,58.83
2018-11-06T10:53:45.068Z,63.68
2018-11-06T10:56:39.619Z,59.48
2018-11-06T10:59:53.193Z,60.23
2018-11-06T11:03:04.372Z,55.00
2018-11-06T11:05:58.425Z,52.65
2018-11-06T11:08:53.350Z,64.07
2018-11-06T11:11:50.426Z,58.90
2018-11-06T11:14:50.638Z,62.53
2018-11-06T11:17:45.619Z,67.08
2018-11-06T11:20:41.480Z,66.30
2018-11-06T11:23:35.733Z,62.98
2018-11-06T11:26:31.431Z,67.95
2018-11-06T11:29:27.019Z,55.83
2018-11-06T11:32:21.281Z,62.15
2018-11-06T11:35:17.721Z,69.15
2018-11-06T11:38:11.672Z,59.42
2018-11-06T11:41:05.644Z,71.12
2018-11-06T11:43:59.228Z,65.40
2018-11-06T11:46:52.986Z,63.38
2018-11-06T11:49:51.395Z,72.70
2018-11-06T11:52:47.095Z,60.20
2018-11-06T11:55:53.836Z,72.95
2018-11-06T11:58:47.549Z,70.32
2018-11-06T12:01:41.607Z,81.45
2018-11-06T12:04:35.561Z,70.17
2018-11-06T12:07:36.525Z,74.95
2018-11-06T12:10:31.862Z,80.25
2018-11-06T12:13:25.832Z,84.20
2018-11-06T12:16:19.996Z,95.17
2018-11-06T12:19:13.994Z,94.20
2018-11-06T12:22:07.870Z,106.40
2018-11-06T12:25:01.544Z,124.07
2018-11-06T12:27:55.072Z,97.50
2018-11-06T12:30:49.017Z,88.03
2018-11-06T12:33:43.075Z,97.55
2018-11-06T12:36:37.105Z,120.25
2018-11-06T12:39:34.820Z,132.52
2018-11-06T12:42:33.191Z,180.00
2018-11-06T12:45:23.446Z,185.80
2018-11-06T12:48:17.466Z,142.50
2018-11-06T12:51:11.546Z,121.17
2018-11-06T12:54:05.835Z,113.75
2018-11-06T12:57:04.219Z,116.67
2018-11-06T12:59:55.314Z,131.20
2018-11-06T13:02:48.688Z,115.00
2018-11-06T13:05:42.456Z,125.50
2018-11-06T13:08:36.450Z,123.58
2018-11-06T13:11:30.321Z,127.25
2018-11-06T13:14:24.193Z,134.87
2018-11-06T13:17:18.785Z,148.13
2018-11-06T13:20:20.757Z,120.72
2018-11-06T13:23:12.991Z,113.03
2018-11-06T13:26:07.250Z,167.18
2018-11-06T13:29:01.873Z,148.80
2018-11-06T13:31:56.261Z,162.77
2018-11-06T13:34:51.060Z,147.17
2018-11-06T13:37:47.588Z,159.22
2018-11-06T13:40:42.277Z,172.37
2018-11-06T13:43:36.148Z,171.15
2018-11-06T13:46:29.872Z,180.48
2018-11-06T13:49:24.231Z,213.90
2018-11-06T13:52:18.175Z,193.72
2018-11-06T13:55:14.503Z,213.57
2018-11-06T13:58:08.929Z,265.70
2018-11-06T14:01:05.993Z,231.38
2018-11-06T14:04:07.320Z,265.73
2018-11-06T14:07:01.406Z,253.37
2018-11-06T14:09:56.296Z,235.53
2018-11-06T14:12:50.018Z,229.07
2018-11-06T14:15:44.329Z,176.07
2018-11-06T14:18:39.086Z,187.27
2018-11-06T14:21:32.962Z,157.70
2018-11-06T14:24:27.164Z,184.07
2018-11-06T14:27:21.019Z,156.45
2018-11-06T14:30:20.663Z,176.65
2018-11-06T14:33:18.447Z,175.97
2018-11-06T14:36:16.575Z,173.30
2018-11-06T14:39:13.546Z,177.65
2018-11-06T14:42:27.718Z,183.00
2018-11-06T14:45:16.486Z,192.13
2018-11-06T14:48:11.120Z,165.80
2018-11-06T14:51:05.406Z,165.10
2018-11-06T14:53:59.772Z,195.47
2018-11-06T14:56:55.243Z,195.18
2018-11-06T14:59:49.234Z,213.75
2018-11-06T15:02:43.468Z,186.18
2018-11-06T15:05:37.536Z,207.00
2018-11-06T15:08:32.354Z,207.45
2018-11-06T15:11:26.372Z,203.83
2018-11-06T15:14:20.751Z,233.78
2018-11-06T15:17:15.736Z,236.95
2018-11-06T15:20:12.251Z,231.82
2018-11-06T15:23:06.784Z,211.75
2018-11-06T15:26:01.337Z,187.22
2018-11-06T15:28:55.158Z,206.70
2018-11-06T15:31:49.276Z,193.82
2018-11-06T15:34:43.149Z,204.25
2018-11-06T15:37:38.142Z,194.32
2018-11-06T15:40:35.327Z,156.05
2018-11-06T15:43:29.208Z,144.02
2018-11-06T15:46:23.374Z,143.57
2018-11-06T15:49:17.786Z,141.77
2018-11-06T15:52:11.963Z,177.87
2018-11-06T15:55:06.661Z,178.02
2018-11-06T15:58:00.941Z,174.40
2018-11-06T16:00:55.999Z,169.62
2018-11-06T16:03:50.031Z,171.47
2018-11-06T16:06:46.256Z,172.02
2018-11-06T16:09:46.620Z,172.25
2018-11-06T16:12:38.023Z,176.12
2018-11-06T16:15:32.162Z,163.37
2018-11-06T16:18:26.252Z,154.75
2018-11-06T16:21:19.745Z,161.70
2018-11-06T16:24:14.070Z,166.30
2018-11-06T16:27:08.093Z,178.15
2018-11-06T16:30:01.910Z,160.28
2018-11-06T16:32:55.553Z,171.77
2018-11-06T16:35:49.624Z,171.65
2018-11-06T16:38:44.425Z,145.47
2018-11-06T16:41:39.139Z,170.80
2018-11-06T16:44:33.095Z,139.22
2018-11-06T16:47:27.279Z,141.53
2018-11-06T16:50:22.488Z,128.85
2018-11-06T16:53:16.652Z,151.95
2018-11-06T16:56:10.652Z,164.10
2018-11-06T16:59:04.732Z,176.27
2018-11-06T17:01:59.827Z,174.10
2018-11-06T17:04:54.019Z,179.97
2018-11-06T17:07:48.226Z,176.65
2018-11-06T17:11:01.022Z,164.05
2018-11-06T17:13:54.696Z,163.47
2018-11-06T17:16:49.290Z,161.80
2018-11-06T17:19:45.413Z,195.92
2018-11-06T17:22:39.497Z,163.68
2018-11-06T17:25:33.424Z,187.32
2018-11-06T17:28:31.241Z,177.30
2018-11-06T17:31:21.727Z,201.92
2018-11-06T17:34:16.543Z,196.72
2018-11-06T17:37:10.936Z,194.22
2018-11-06T17:40:05.316Z,213.10
2018-11-06T17:42:59.595Z,204.97
2018-11-06T17:45:53.890Z,212.65
2018-11-06T17:48:47.574Z,206.55
2018-11-06T17:51:42.059Z,183.75
2018-11-06T17:54:35.442Z,202.50
2018-11-06T17:57:29.906Z,193.13
2018-11-06T18:00:25.728Z,182.00
2018-11-06T18:03:22.472Z,153.82
2018-11-06T18:06:16.552Z,160.03
2018-11-06T18:09:15.137Z,145.12
2018-11-06T18:12:09.325Z,157.47
2018-11-06T18:15:04.231Z,142.95
2018-11-06T18:17:58.481Z,140.05
2018-11-06T18:20:54.940Z,143.85
2018-11-06T18:23:49.032Z,146.32
2018-11-06T18:26:43.871Z,154.35
2018-11-06T18:29:37.916Z,153.27
2018-11-06T18:32:32.458Z,146.60
2018-11-06T18:35:26.233Z,156.85
2018-11-06T18:38:20.691Z,176.53
2018-11-06T18:41:14.538Z,155.52
2018-11-06T18:44:09.809Z,144.68
2018-11-06T18:47:03.621Z,148.65
2018-11-06T18:49:57.914Z,161.20
2018-11-06T18:52:52.946Z,136.82
2018-11-06T18:55:47.127Z,145.70
2018-11-06T18:58:40.973Z,151.72
2018-11-06T19:01:35.055Z,141.47
2018-11-06T19:04:35.719Z,152.17
2018-11-06T19:07:26.286Z,154.27
2018-11-06T19:10:20.579Z,161.07
2018-11-06T19:13:14.344Z,157.30
2018-11-06T19:16:11.195Z,152.25
2018-11-06T19:19:05.170Z,148.40
2018-11-06T19:21:58.780Z,153.55
2018-11-06T19:24:52.515Z,149.75
2018-11-06T19:27:46.409Z,152.78
2018-11-06T19:30:43.336Z,147.55
2018-11-06T19:33:37.416Z,144.82
2018-11-06T19:36:34.495Z,141.82
2018-11-06T19:39:27.915Z,168.05
2018-11-06T19:42:21.823Z,149.02
2018-11-06T19:45:15.830Z,161.20
2018-11-06T19:48:09.879Z,153.78
2018-11-06T19:51:04.062Z,162.25
2018-11-06T19:54:01.269Z,171.90
2018-11-06T19:56:57.643Z,162.97
2018-11-06T19:59:52.034Z,160.15
2018-11-06T20:02:46.981Z,173.00
2018-11-06T20:05:40.968Z,177.82
2018-11-06T20:08:37.971Z,172.32
2018-11-06T20:11:34.308Z,195.22
2018-11-06T20:14:28.279Z,187.90
2018-11-06T20:17:22.206Z,209.05
2018-11-06T20:20:20.137Z,208.63
2018-11-06T20:23:14.101Z,212.30
2018-11-06T20:26:08.084Z,217.70
2018-11-06T20:29:02.064Z,221.03
2018-11-06T20:31:56.145Z,205.67
2018-11-06T20:34:54.488Z,207.52
2018-11-06T20:37:44.836Z,192.72
2018-11-06T20:40:38.999Z,204.45
2018-11-06T20:43:33.027Z,197.55
2018-11-06T20:46:27.281Z,186.25
2018-11-06T20:49:23.548Z,200.87
2018-11-06T20:52:17.640Z,186.62
2018-11-06T20:55:13.302Z,186.12
2018-11-06T20:58:09.554Z,193.55
2018-11-06T21:01:03.390Z,200.87
2018-11-06T21:03:57.588Z,189.22
2018-11-06T21:06:52.027Z,194.65
2018-11-06T21:09:45.851Z,182.02
2018-11-06T21:12:44.030Z,186.32
2018-11-06T21:15:40.759Z,199.75
2018-11-06T21:18:35.263Z,207.15
2018-11-06T21:21:29.227Z,197.35
2018-11-06T21:24:23.427Z,191.00
2018-11-06T21:27:17.170Z,212.63
2018-11-06T21:30:16.108Z,216.25
2018-11-06T21:33:10.277Z,220.07
2018-11-06T21:36:26.553Z,224.10
2018-11-06T21:39:07.663Z,214.35
2018-11-06T21:42:07.118Z,229.23
2018-11-06T21:45:01.244Z,209.52
2018-11-06T21:47:55.519Z,194.45
2018-11-06T21:50:49.511Z,215.03
2018-11-06T21:53:43.692Z,210.38
2018-11-06T21:56:37.709Z,194.20
2018-11-06T21:59:31.652Z,187.85
2018-11-06T22:02:25.619Z,204.18
2018-11-06T22:05:20.710Z,185.30
2018-11-06T22:08:14.250Z,193.47
2018-11-06T22:11:08.388Z,199.90
2018-11-06T22:14:02.561Z,188.70
2018-11-06T22:16:56.840Z,183.20
2018-11-06T22:19:50.846Z,165.77
2018-11-06T22:22:45.704Z,187.07
2018-11-06T22:25:39.601Z,169.80
2018-11-06T22:28:33.795Z,159.95
2018-11-06T22:31:28.290Z,170.82
2018-11-06T22:34:22.366Z,169.25
2018-11-06T22:37:16.330Z,169.37
2018-11-06T22:40:10.864Z,168.20
2018-11-06T22:43:04.841Z,167.93
2018-11-06T22:45:59.142Z,166.55
2018-11-06T22:48:59.578Z,161.20
2018-11-06T22:51:49.820Z,172.45
2018-11-06T22:54:43.287Z,162.55
2018-11-06T22:57:40.032Z,171.25
2018-11-06T23:00:50.498Z,172.65
2018-11-06T23:03:44.479Z,174.77
2018-11-06T23:06:38.740Z,164.55
2018-11-06T23:09:32.946Z,177.70
2018-11-06T23:12:27.231Z,171.00
2018-11-06T23:15:21.142Z,170.15
2018-11-06T23:18:15.188Z,168.37
2018-11-06T23:21:08.961Z,173.25
2018-11-06T23:24:02.943Z,171.20
2018-11-06T23:26:57.440Z,179.68
2018-11-06T23:29:51.410Z,165.05
2018-11-06T23:32:45.393Z,164.18
2018-11-06T23:35:42.387Z,182.07
2018-11-06T23:38:38.904Z,169.85
2018-11-06T23:41:34.991Z,176.97
2018-11-06T23:44:28.472Z,173.43
2018-11-06T23:47:22.244Z,176.15
2018-11-06T23:50:16.123Z,168.80
2018-11-06T23:53:09.691Z,176.02
2018-11-06T23:56:03.141Z,168.93
2018-11-06T23:58:56.932Z,161.92
